Time;durP1;ratioP1;P1;durP2;ratioP2;P2;SDS_P1;SDS_P2;PMS_P1;PMS_P2;Temp;Humidity;BMP_temperature;BMP_pressure;BME280_temperature;BME280_humidity;BME280_pressure;Samples;Min_cycle;Max_cycle;Signal;HPM_P1;HPM_P2
2022/08/04 00:02:14;;;;;;;;;0.00;0.00;;;;;;;;5030151;28;51494;-59
2022/08/04 00:04:59;;;;;;;;;4.00;4.00;;;;;;;;5031721;28;51186;-58
2022/08/04 00:07:28;;;;;;;;;3.00;3.00;;;;;;;;5031523;28;51018;-58
2022/08/04 00:10:01;;;;;;;;;3.00;3.00;;;;;;;;5032281;28;51176;-57
2022/08/04 00:12:29;;;;;;;;;3.67;3.00;;;;;;;;5031680;28;51440;-58
2022/08/04 00:14:56;;;;;;;;;2.00;2.00;;;;;;;;5031468;28;53762;-60
2022/08/04 00:17:24;;;;;;;;;3.00;3.00;;;;;;;;5022111;28;51464;-59
2022/08/04 00:19:54;;;;;;;;;2.00;2.00;;;;;;;;5031856;28;50924;-60
2022/08/04 00:22:21;;;;;;;;;2.00;2.00;;;;;;;;5032352;28;51118;-60
2022/08/04 00:24:46;;;;;;;;;2.33;2.00;;;;;;;;5031547;28;50931;-58
2022/08/04 00:27:12;;;;;;;;;4.33;4.00;;;;;;;;5031662;28;50866;-59
2022/08/04 00:29:38;;;;;;;;;2.00;2.00;;;;;;;;5031493;28;51020;-59
2022/08/04 00:32:05;;;;;;;;;3.00;3.00;;;;;;;;5032056;28;51090;-59
2022/08/04 00:34:30;;;;;;;;;4.00;3.00;;;;;;;;5031478;28;53662;-59
2022/08/04 00:36:56;;;;;;;;;3.00;3.00;;;;;;;;5032023;28;51029;-59
2022/08/04 00:39:21;;;;;;;;;2.00;2.00;;;;;;;;5031987;28;51002;-59
2022/08/04 00:41:46;;;;;;;;;2.33;2.33;;;;;;;;5032342;28;51020;-60
2022/08/04 00:44:23;;;;;;;;;4.00;3.00;;;;;;;;5032454;28;52012;-60
2022/08/04 00:46:48;;;;;;;;;3.33;3.33;;;;;;;;5034316;28;50800;-59
2022/08/04 00:49:43;;;;;;;;;2.67;2.67;;;;;;;;5035576;28;51065;-59
2022/08/04 00:52:26;;;;;;;;;4.33;3.00;;;;;;;;4962054;28;51998;-58
2022/08/04 00:54:52;;;;;;;;;2.00;2.00;;;;;;;;5024389;28;50940;-58
2022/08/04 00:57:46;;;;;;;;;2.00;2.00;;;;;;;;5035132;28;51061;-58
2022/08/04 01:00:12;;;;;;;;;2.33;2.00;;;;;;;;5035235;28;50895;-59
2022/08/04 01:02:49;;;;;;;;;3.00;3.00;;;;;;;;5034962;28;50876;-59
2022/08/04 01:05:35;;;;;;;;;1.00;1.00;;;;;;;;5035185;28;50893;-58
2022/08/04 01:08:16;;;;;;;;;2.00;2.00;;;;;;;;5034850;28;50956;-58
2022/08/04 01:10:50;;;;;;;;;4.33;4.00;;;;;;;;5034942;28;51115;-59
2022/08/04 01:13:15;;;;;;;;;4.00;3.33;;;;;;;;5035207;28;51227;-59
2022/08/04 01:15:59;;;;;;;;;2.67;2.67;;;;;;;;5032018;28;51162;-57
2022/08/04 01:18:31;;;;;;;;;4.00;3.33;;;;;;;;5046116;28;51116;-58
2022/08/04 01:21:15;;;;;;;;;3.00;3.00;;;;;;;;5055252;28;50906;-58
2022/08/04 01:23:59;;;;;;;;;2.67;2.67;;;;;;;;5050179;28;51084;-59
2022/08/04 01:26:30;;;;;;;;;2.33;2.33;;;;;;;;5034468;28;52370;-60
2022/08/04 01:29:08;;;;;;;;;5.00;2.33;;;;;;;;5035319;28;51004;-60
2022/08/04 01:31:33;;;;;;;;;2.00;2.00;;;;;;;;5034619;28;51156;-59
2022/08/04 01:33:59;;;;;;;;;4.33;3.33;;;;;;;;5035436;28;51053;-60
2022/08/04 01:36:25;;;;;;;;;2.33;2.33;;;;;;;;5034720;28;52654;-59
2022/08/04 01:38:52;;;;;;;;;3.33;3.33;;;;;;;;5035588;28;50963;-58
2022/08/04 01:41:18;;;;;;;;;2.67;2.67;;;;;;;;5034857;28;51084;-58
2022/08/04 01:43:45;;;;;;;;;3.00;3.00;;;;;;;;5035150;28;50899;-59
2022/08/04 01:46:11;;;;;;;;;3.00;3.00;;;;;;;;5034321;28;52017;-58
2022/08/04 01:48:37;;;;;;;;;3.00;3.00;;;;;;;;5034099;28;50973;-58
2022/08/04 01:51:04;;;;;;;;;2.67;2.67;;;;;;;;5033920;28;51050;-58
2022/08/04 01:53:33;;;;;;;;;2.00;2.00;;;;;;;;5041322;28;50891;-58
2022/08/04 01:56:00;;;;;;;;;3.00;2.00;;;;;;;;5031242;28;52057;-58
2022/08/04 01:58:27;;;;;;;;;2.00;2.00;;;;;;;;5034036;28;51116;-60
2022/08/04 02:00:57;;;;;;;;;2.67;2.67;;;;;;;;5038699;28;51187;-58
2022/08/04 02:03:22;;;;;;;;;2.33;2.00;;;;;;;;5042539;28;50929;-58
2022/08/04 02:05:49;;;;;;;;;2.67;2.67;;;;;;;;5052372;28;51254;-58
2022/08/04 02:08:29;;;;;;;;;3.00;3.00;;;;;;;;5054266;28;51090;-58
2022/08/04 02:11:02;;;;;;;;;2.33;2.33;;;;;;;;5054038;28;50985;-58
2022/08/04 02:13:31;;;;;;;;;3.00;3.00;;;;;;;;5054056;28;50930;-59
2022/08/04 02:15:56;;;;;;;;;2.33;2.00;;;;;;;;5048887;28;51066;-59
2022/08/04 02:18:23;;;;;;;;;3.67;3.67;;;;;;;;5033844;28;51248;-59
2022/08/04 02:20:54;;;;;;;;;4.00;3.00;;;;;;;;5034061;28;51136;-60
2022/08/04 02:23:35;;;;;;;;;3.00;3.00;;;;;;;;5033967;28;50841;-60
2022/08/04 02:26:03;;;;;;;;;3.00;2.67;;;;;;;;5033491;28;52064;-60
2022/08/04 02:28:32;;;;;;;;;3.00;3.00;;;;;;;;5033596;28;51192;-60
2022/08/04 02:31:00;;;;;;;;;3.00;3.00;;;;;;;;5033470;28;51115;-59
2022/08/04 02:33:34;;;;;;;;;3.33;3.33;;;;;;;;5033773;28;51121;-59
2022/08/04 02:36:02;;;;;;;;;3.00;3.00;;;;;;;;5033249;28;51487;-60
2022/08/04 02:38:39;;;;;;;;;3.67;3.67;;;;;;;;5033615;28;51067;-59
2022/08/04 02:41:07;;;;;;;;;3.00;3.00;;;;;;;;5033402;28;51002;-59
2022/08/04 02:43:34;;;;;;;;;4.67;4.00;;;;;;;;5033845;28;51185;-60
2022/08/04 02:46:02;;;;;;;;;2.33;2.33;;;;;;;;5033251;28;51007;-59
2022/08/04 02:48:27;;;;;;;;;3.00;3.00;;;;;;;;5033401;28;50962;-59
2022/08/04 02:50:53;;;;;;;;;3.00;3.00;;;;;;;;5033524;28;51106;-59
2022/08/04 02:53:20;;;;;;;;;4.67;4.33;;;;;;;;5012143;28;50936;-60
2022/08/04 02:55:46;;;;;;;;;3.00;3.00;;;;;;;;5015093;28;53201;-59
2022/08/04 02:58:14;;;;;;;;;3.00;3.00;;;;;;;;5033391;28;50839;-59
2022/08/04 03:00:39;;;;;;;;;4.00;4.00;;;;;;;;5034070;28;51172;-59
2022/08/04 03:03:25;;;;;;;;;4.33;4.00;;;;;;;;5053603;28;51136;-59
2022/08/04 03:05:55;;;;;;;;;4.00;4.00;;;;;;;;5052969;28;52639;-60
2022/08/04 03:08:33;;;;;;;;;3.00;3.00;;;;;;;;5052494;28;51371;-59
2022/08/04 03:11:13;;;;;;;;;5.33;5.33;;;;;;;;5052871;28;51117;-59
2022/08/04 03:13:38;;;;;;;;;5.67;5.00;;;;;;;;5053404;28;50870;-59
2022/08/04 03:16:15;;;;;;;;;4.33;3.00;;;;;;;;5046476;28;52977;-59
2022/08/04 03:18:59;;;;;;;;;3.33;3.33;;;;;;;;5032926;28;51053;-59
2022/08/04 03:21:24;;;;;;;;;4.33;4.33;;;;;;;;5032806;28;51263;-59
2022/08/04 03:24:06;;;;;;;;;4.25;3.50;;;;;;;;5033579;28;51068;-59
2022/08/04 03:26:45;;;;;;;;;4.00;3.00;;;;;;;;5032887;28;51356;-59
2022/08/04 03:29:19;;;;;;;;;4.00;4.00;;;;;;;;5032704;28;51070;-59
2022/08/04 03:32:03;;;;;;;;;4.67;4.00;;;;;;;;5032684;28;50919;-60
2022/08/04 03:34:34;;;;;;;;;2.33;2.33;;;;;;;;5032611;28;50812;-59
2022/08/04 03:37:11;;;;;;;;;5.00;3.00;;;;;;;;5032403;28;51135;-59
2022/08/04 03:39:55;;;;;;;;;2.00;2.00;;;;;;;;5032473;28;51006;-58
2022/08/04 03:42:26;;;;;;;;;4.33;4.33;;;;;;;;5032363;28;51094;-59
2022/08/04 03:44:54;;;;;;;;;3.00;2.33;;;;;;;;5032677;28;50879;-59
2022/08/04 03:47:31;;;;;;;;;4.67;3.67;;;;;;;;5032174;28;51958;-58
2022/08/04 03:49:56;;;;;;;;;2.67;2.67;;;;;;;;5032198;28;51172;-58
2022/08/04 03:55:29;;;;;;;;;5.00;4.00;;;;;;;;5032629;28;50908;-60
2022/08/04 03:57:57;;;;;;;;;5.33;5.33;;;;;;;;5027550;28;51890;-59
2022/08/04 04:00:40;;;;;;;;;6.33;6.33;;;;;;;;5030385;28;50883;-58
2022/08/04 04:03:14;;;;;;;;;5.00;5.00;;;;;;;;5032368;28;50992;-59
2022/08/04 04:05:48;;;;;;;;;3.33;3.33;;;;;;;;5032225;28;50919;-58
2022/08/04 04:08:32;;;;;;;;;3.67;3.67;;;;;;;;5013947;28;52624;-59
2022/08/04 04:11:00;;;;;;;;;3.00;3.00;;;;;;;;5031919;28;50997;-59
2022/08/04 04:13:34;;;;;;;;;4.00;3.00;;;;;;;;5031877;28;50886;-58
2022/08/04 04:16:18;;;;;;;;;3.00;2.00;;;;;;;;5026562;28;51297;-58
2022/08/04 04:19:02;;;;;;;;;5.00;4.33;;;;;;;;5030249;28;51879;-59
2022/08/04 04:21:46;;;;;;;;;3.00;3.00;;;;;;;;5034655;28;51029;-58
2022/08/04 04:24:20;;;;;;;;;2.67;2.67;;;;;;;;5035642;28;51374;-60
2022/08/04 04:26:48;;;;;;;;;3.67;3.33;;;;;;;;5035434;28;51226;-60
2022/08/04 04:29:32;;;;;;;;;3.00;3.00;;;;;;;;5035262;28;52234;-58
2022/08/04 04:31:57;;;;;;;;;4.00;4.00;;;;;;;;5035323;28;50948;-59
2022/08/04 04:34:34;;;;;;;;;3.67;3.00;;;;;;;;5035388;28;51143;-59
2022/08/04 04:37:05;;;;;;;;;2.00;2.00;;;;;;;;5035349;28;50999;-59
2022/08/04 04:39:37;;;;;;;;;3.33;3.33;;;;;;;;5035006;28;51670;-59
2022/08/04 04:42:11;;;;;;;;;4.00;3.67;;;;;;;;5034915;28;50950;-59
2022/08/04 04:44:45;;;;;;;;;3.00;3.00;;;;;;;;5034987;28;50904;-58
2022/08/04 04:47:23;;;;;;;;;3.00;3.00;;;;;;;;5035475;28;50865;-58
2022/08/04 04:49:50;;;;;;;;;3.00;3.00;;;;;;;;5034990;28;52084;-59
2022/08/04 04:52:34;;;;;;;;;4.00;4.00;;;;;;;;5034984;28;51068;-59
2022/08/04 04:55:08;;;;;;;;;4.00;4.00;;;;;;;;5051912;28;51268;-59
2022/08/04 04:57:35;;;;;;;;;4.00;4.00;;;;;;;;5034972;28;51038;-60
2022/08/04 05:00:08;;;;;;;;;3.67;3.67;;;;;;;;5035061;28;51746;-60
2022/08/04 05:02:36;;;;;;;;;5.33;4.00;;;;;;;;5032991;28;50952;-59
2022/08/04 05:05:01;;;;;;;;;3.33;3.33;;;;;;;;5034938;28;50958;-59
2022/08/04 05:07:32;;;;;;;;;4.33;3.67;;;;;;;;5034889;28;51165;-59
2022/08/04 05:10:05;;;;;;;;;5.00;4.33;;;;;;;;5034700;28;52513;-58
2022/08/04 05:12:38;;;;;;;;;4.00;4.00;;;;;;;;5034614;28;50995;-59
2022/08/04 05:15:06;;;;;;;;;5.00;4.00;;;;;;;;5034672;28;50951;-59
2022/08/04 05:17:39;;;;;;;;;3.67;3.67;;;;;;;;5025076;28;51367;-58
2022/08/04 05:20:26;;;;;;;;;4.33;4.33;;;;;;;;5034353;28;52144;-59
2022/08/04 05:22:51;;;;;;;;;5.33;5.00;;;;;;;;5034592;28;51011;-59
2022/08/04 05:25:38;;;;;;;;;5.00;4.00;;;;;;;;5034309;28;51204;-59
2022/08/04 05:28:11;;;;;;;;;4.00;4.00;;;;;;;;5049969;28;51118;-59
2022/08/04 05:30:37;;;;;;;;;4.00;4.00;;;;;;;;5054570;28;52302;-59
2022/08/04 05:33:08;;;;;;;;;5.00;5.00;;;;;;;;5053646;28;51126;-59
2022/08/04 05:35:36;;;;;;;;;4.00;4.00;;;;;;;;5054517;28;50970;-59
2022/08/04 05:38:02;;;;;;;;;5.33;5.33;;;;;;;;5054485;28;51047;-59
2022/08/04 05:40:28;;;;;;;;;4.33;4.00;;;;;;;;5053935;28;52231;-59
2022/08/04 05:42:54;;;;;;;;;4.00;4.00;;;;;;;;5054027;28;51295;-59
2022/08/04 05:45:21;;;;;;;;;4.00;4.00;;;;;;;;5054215;28;51083;-61
2022/08/04 05:47:46;;;;;;;;;4.33;4.00;;;;;;;;5054293;28;51325;-63
2022/08/04 05:50:12;;;;;;;;;6.00;5.67;;;;;;;;5052153;28;51260;-60
2022/08/04 05:52:37;;;;;;;;;6.33;6.00;;;;;;;;5034955;28;51041;-59
2022/08/04 05:55:03;;;;;;;;;5.67;5.33;;;;;;;;5038539;28;50950;-59
2022/08/04 05:57:29;;;;;;;;;7.00;6.00;;;;;;;;5033614;28;51082;-59
2022/08/04 05:59:56;;;;;;;;;6.00;6.00;;;;;;;;5033611;28;51844;-60
2022/08/04 06:02:22;;;;;;;;;8.67;6.33;;;;;;;;5032110;28;51011;-59
2022/08/04 06:04:49;;;;;;;;;5.67;5.00;;;;;;;;5033874;28;50880;-59
2022/08/04 06:07:15;;;;;;;;;4.33;3.67;;;;;;;;5033603;28;50964;-58
2022/08/04 06:09:40;;;;;;;;;5.00;4.67;;;;;;;;5033290;28;51850;-59
2022/08/04 06:12:07;;;;;;;;;6.00;6.00;;;;;;;;5033324;28;50982;-59
2022/08/04 06:14:37;;;;;;;;;6.00;5.33;;;;;;;;5033233;28;51336;-58
2022/08/04 06:17:04;;;;;;;;;5.33;5.00;;;;;;;;5033278;28;50923;-59
2022/08/04 06:19:30;;;;;;;;;4.33;4.33;;;;;;;;5033064;28;51853;-58
2022/08/04 06:21:57;;;;;;;;;5.67;5.00;;;;;;;;5033251;28;51133;-59
2022/08/04 06:24:23;;;;;;;;;5.67;5.67;;;;;;;;5033661;28;51101;-60
2022/08/04 06:26:50;;;;;;;;;5.33;5.00;;;;;;;;5033456;28;50879;-58
2022/08/04 06:29:23;;;;;;;;;5.33;4.67;;;;;;;;5033009;28;51169;-60
2022/08/04 06:31:57;;;;;;;;;4.33;4.00;;;;;;;;5032980;28;50948;-59
2022/08/04 06:34:23;;;;;;;;;5.00;5.00;;;;;;;;5033234;28;51165;-59
2022/08/04 06:36:48;;;;;;;;;5.00;5.00;;;;;;;;5032843;28;50901;-59
2022/08/04 06:39:14;;;;;;;;;5.67;5.67;;;;;;;;5014708;28;52125;-59
2022/08/04 06:41:39;;;;;;;;;4.00;3.00;;;;;;;;5032462;28;50857;-59
2022/08/04 06:44:07;;;;;;;;;3.67;3.67;;;;;;;;5031797;28;50936;-59
2022/08/04 06:46:33;;;;;;;;;6.67;6.00;;;;;;;;5032946;28;51381;-59
2022/08/04 06:48:59;;;;;;;;;5.00;5.00;;;;;;;;5032618;28;51076;-59
2022/08/04 06:51:24;;;;;;;;;7.00;5.00;;;;;;;;5032678;28;50971;-59
2022/08/04 06:53:50;;;;;;;;;6.67;6.67;;;;;;;;5045528;28;51143;-59
2022/08/04 06:56:16;;;;;;;;;5.00;4.00;;;;;;;;5027389;28;51139;-59
2022/08/04 06:58:42;;;;;;;;;4.00;4.00;;;;;;;;5014509;28;54098;-59
2022/08/04 07:01:08;;;;;;;;;3.00;3.00;;;;;;;;5030659;28;51029;-59
2022/08/04 07:03:33;;;;;;;;;4.00;3.00;;;;;;;;5032537;28;50966;-59
2022/08/04 07:06:08;;;;;;;;;5.00;4.00;;;;;;;;5106769;27;50946;-59
2022/08/04 07:08:34;;;;;;;;;2.67;2.67;;;;;;;;5108088;27;51141;-59
2022/08/04 07:11:00;;;;;;;;;5.00;4.00;;;;;;;;5109799;27;51067;-60
2022/08/04 07:13:26;;;;;;;;;3.00;3.00;;;;;;;;5107980;27;51182;-59
2022/08/04 07:15:53;;;;;;;;;4.33;4.00;;;;;;;;5103303;27;51004;-61
2022/08/04 07:18:19;;;;;;;;;5.00;3.33;;;;;;;;5090465;27;51290;-59
2022/08/04 07:20:44;;;;;;;;;3.67;3.33;;;;;;;;5109853;27;51055;-59
2022/08/04 07:23:12;;;;;;;;;3.00;3.00;;;;;;;;5106546;27;51259;-59
2022/08/04 07:25:38;;;;;;;;;3.00;3.00;;;;;;;;5088911;27;50879;-59
2022/08/04 07:28:03;;;;;;;;;1.00;1.00;;;;;;;;5088901;27;50879;-59
2022/08/04 07:30:29;;;;;;;;;2.67;2.00;;;;;;;;5089474;27;50860;-59
2022/08/04 07:32:54;;;;;;;;;3.67;3.00;;;;;;;;5088891;27;52084;-59
2022/08/04 07:35:21;;;;;;;;;7.33;7.33;;;;;;;;5089135;27;50992;-59
2022/08/04 07:42:37;;;;;;;;;3.00;3.00;;;;;;;;5087001;27;80995;-59
2022/08/04 07:45:03;;;;;;;;;4.00;3.33;;;;;;;;5088052;27;51180;-59
2022/08/04 07:47:28;;;;;;;;;2.67;2.67;;;;;;;;5088753;27;51020;-61
2022/08/04 07:49:54;;;;;;;;;3.00;2.00;;;;;;;;5089026;27;50846;-60
2022/08/04 07:52:19;;;;;;;;;3.33;3.00;;;;;;;;5088346;27;52043;-59
2022/08/04 07:54:45;;;;;;;;;3.00;3.00;;;;;;;;5088723;27;50866;-59
2022/08/04 07:57:10;;;;;;;;;5.00;4.00;;;;;;;;5088686;27;50977;-60
2022/08/04 07:59:35;;;;;;;;;5.00;4.00;;;;;;;;5089046;27;51436;-60
2022/08/04 08:02:01;;;;;;;;;1.67;1.00;;;;;;;;5088245;27;51944;-59
2022/08/04 08:04:27;;;;;;;;;3.33;3.33;;;;;;;;5088248;27;50978;-60
2022/08/04 08:06:52;;;;;;;;;4.00;3.00;;;;;;;;5088757;27;51156;-59
2022/08/04 08:09:22;;;;;;;;;3.67;3.67;;;;;;;;5088727;27;50852;-60
2022/08/04 08:11:48;;;;;;;;;2.33;2.33;;;;;;;;5088115;27;51084;-59
2022/08/04 08:14:14;;;;;;;;;13.00;12.67;;;;;;;;5088203;27;51081;-58
2022/08/04 08:16:39;;;;;;;;;8.00;7.33;;;;;;;;5079103;27;51109;-59
2022/08/04 08:19:05;;;;;;;;;7.00;5.33;;;;;;;;5074979;28;50768;-59
2022/08/04 08:21:30;;;;;;;;;8.00;7.00;;;;;;;;5074539;28;51326;-59
2022/08/04 08:23:56;;;;;;;;;3.33;2.67;;;;;;;;5074723;28;51096;-60
2022/08/04 08:26:22;;;;;;;;;14.33;14.33;;;;;;;;5074260;28;51024;-60
2022/08/04 08:28:47;;;;;;;;;5.00;5.00;;;;;;;;5074892;27;51345;-59
2022/08/04 08:31:12;;;;;;;;;6.00;5.00;;;;;;;;5074515;28;51001;-61
2022/08/04 08:33:37;;;;;;;;;5.33;4.67;;;;;;;;5074891;28;50942;-58
2022/08/04 08:36:08;;;;;;;;;6.00;6.00;;;;;;;;5074612;28;50893;-59
2022/08/04 08:38:37;;;;;;;;;5.00;5.00;;;;;;;;5074730;28;50878;-59
2022/08/04 08:41:19;;;;;;;;;6.00;5.67;;;;;;;;5073378;28;52031;-61
2022/08/04 08:43:44;;;;;;;;;6.00;5.00;;;;;;;;5074286;28;50989;-60
2022/08/04 08:46:19;;;;;;;;;6.33;5.33;;;;;;;;5074282;28;50943;-59
2022/08/04 08:48:57;;;;;;;;;8.00;7.33;;;;;;;;5074343;27;51032;-59
2022/08/04 08:51:23;;;;;;;;;5.00;5.00;;;;;;;;5073583;28;51929;-59
2022/08/04 08:54:08;;;;;;;;;5.67;5.67;;;;;;;;5074084;28;50959;-58
2022/08/04 08:56:52;;;;;;;;;5.00;5.00;;;;;;;;5074195;27;50937;-60
2022/08/04 08:59:36;;;;;;;;;4.67;4.33;;;;;;;;5074266;27;51038;-60
2022/08/04 09:02:33;;;;;;;;;5.00;4.00;;;;;;;;5073796;27;51043;-60
2022/08/04 09:05:02;;;;;;;;;4.00;4.00;;;;;;;;5048983;28;51047;-60
2022/08/04 09:07:37;;;;;;;;;4.00;3.00;;;;;;;;5072137;28;50919;-59
2022/08/04 09:10:16;;;;;;;;;4.67;4.00;;;;;;;;5074076;28;51120;-59
2022/08/04 09:12:45;;;;;;;;;5.00;4.67;;;;;;;;5073508;28;51761;-60
2022/08/04 09:15:10;;;;;;;;;6.33;5.67;;;;;;;;5073615;28;51152;-59
2022/08/04 09:17:46;;;;;;;;;7.00;6.25;;;;;;;;5073840;28;50923;-60
2022/08/04 09:20:17;;;;;;;;;6.00;5.00;;;;;;;;5073576;28;51144;-60
2022/08/04 09:22:50;;;;;;;;;5.00;4.67;;;;;;;;5073172;27;50917;-60
2022/08/04 09:25:36;;;;;;;;;4.00;4.00;;;;;;;;5073339;27;50961;-60
2022/08/04 09:28:03;;;;;;;;;6.00;6.00;;;;;;;;5072059;27;50940;-60
2022/08/04 09:30:38;;;;;;;;;3.33;3.33;;;;;;;;5073962;27;51108;-59
2022/08/04 09:33:22;;;;;;;;;5.00;5.00;;;;;;;;5073273;27;51975;-59
2022/08/04 09:35:54;;;;;;;;;5.33;5.00;;;;;;;;5073284;27;50996;-59
2022/08/04 09:38:28;;;;;;;;;4.33;4.33;;;;;;;;5073423;27;51219;-59
2022/08/04 09:41:09;;;;;;;;;3.00;2.00;;;;;;;;5073150;27;50957;-59
2022/08/04 09:43:42;;;;;;;;;4.33;4.00;;;;;;;;5072986;27;52282;-59
2022/08/04 09:46:17;;;;;;;;;5.00;5.00;;;;;;;;5072970;27;50954;-61
2022/08/04 09:48:45;;;;;;;;;2.67;2.00;;;;;;;;5073207;27;51037;-60
2022/08/04 09:51:24;;;;;;;;;8.33;7.33;;;;;;;;5073308;28;50936;-59
2022/08/04 09:54:00;;;;;;;;;3.00;3.00;;;;;;;;5072668;28;51288;-59
2022/08/04 09:56:37;;;;;;;;;3.67;3.00;;;;;;;;5072468;28;50926;-62
2022/08/04 09:59:08;;;;;;;;;12.00;12.00;;;;;;;;5072883;27;50876;-59
2022/08/04 10:01:35;;;;;;;;;2.33;2.00;;;;;;;;5073406;28;51054;-59
2022/08/04 10:04:02;;;;;;;;;2.00;2.00;;;;;;;;5072186;28;50967;-59
2022/08/04 10:06:40;;;;;;;;;4.33;3.33;;;;;;;;5071906;28;50961;-61
2022/08/04 10:09:16;;;;;;;;;2.00;2.00;;;;;;;;5072689;28;51229;-59
2022/08/04 10:12:02;;;;;;;;;3.00;2.33;;;;;;;;5072296;27;51413;-60
2022/08/04 10:14:46;;;;;;;;;2.00;2.00;;;;;;;;5072558;28;52552;-60
2022/08/04 10:17:27;;;;;;;;;2.00;2.00;;;;;;;;5072431;28;51143;-60
2022/08/04 10:19:58;;;;;;;;;5.00;4.00;;;;;;;;5072699;28;51142;-59
2022/08/04 10:22:23;;;;;;;;;3.00;3.00;;;;;;;;5072975;28;51019;-59
2022/08/04 10:24:51;;;;;;;;;3.00;2.00;;;;;;;;5071978;28;51857;-60
2022/08/04 10:27:17;;;;;;;;;8.00;8.00;;;;;;;;5072168;28;50874;-59
2022/08/04 10:29:43;;;;;;;;;2.00;2.00;;;;;;;;5072321;28;50994;-60
2022/08/04 10:32:25;;;;;;;;;2.33;2.00;;;;;;;;5072838;28;51221;-60
2022/08/04 10:35:03;;;;;;;;;2.33;2.00;;;;;;;;5071564;28;51058;-60
2022/08/04 10:37:33;;;;;;;;;2.00;1.67;;;;;;;;5072355;28;50850;-59
2022/08/04 10:42:59;;;;;;;;;3.00;3.00;;;;;;;;5071076;28;50948;-60
2022/08/04 10:45:27;;;;;;;;;2.67;2.00;;;;;;;;5071782;27;51997;-59
2022/08/04 10:48:00;;;;;;;;;4.00;3.00;;;;;;;;5071581;27;51094;-60
2022/08/04 10:50:27;;;;;;;;;4.00;3.00;;;;;;;;5070516;28;51037;-59
2022/08/04 10:53:02;;;;;;;;;2.33;2.33;;;;;;;;5071858;28;51283;-60
2022/08/04 10:55:49;;;;;;;;;3.33;2.00;;;;;;;;5071191;28;51003;-59
2022/08/04 10:58:18;;;;;;;;;3.00;2.33;;;;;;;;5072057;28;51024;-60
2022/08/04 11:00:44;;;;;;;;;2.00;1.67;;;;;;;;5071623;28;50953;-60
2022/08/04 11:03:19;;;;;;;;;1.00;1.00;;;;;;;;5070258;28;51134;-60
2022/08/04 11:05:47;;;;;;;;;2.00;2.00;;;;;;;;5070897;28;51939;-60
2022/08/04 11:08:19;;;;;;;;;2.00;1.00;;;;;;;;5071196;28;51010;-59
2022/08/04 11:10:51;;;;;;;;;3.00;3.00;;;;;;;;5071168;28;51034;-59
2022/08/04 11:13:16;;;;;;;;;3.00;3.00;;;;;;;;5071803;28;51144;-60
2022/08/04 11:15:54;;;;;;;;;3.00;2.67;;;;;;;;5071285;28;52854;-61
2022/08/04 11:18:34;;;;;;;;;2.00;2.00;;;;;;;;5071244;27;50968;-59
2022/08/04 11:21:19;;;;;;;;;3.00;3.00;;;;;;;;5071728;27;52170;-59
2022/08/04 11:23:46;;;;;;;;;4.33;4.33;;;;;;;;5071772;27;51308;-59
2022/08/04 11:26:17;;;;;;;;;3.00;3.00;;;;;;;;5069686;28;52639;-60
2022/08/04 11:28:57;;;;;;;;;4.00;2.67;;;;;;;;5071731;27;51083;-60
2022/08/04 11:31:25;;;;;;;;;1.00;1.00;;;;;;;;5071456;28;51227;-60
2022/08/04 11:34:09;;;;;;;;;3.00;3.00;;;;;;;;5071474;28;51366;-61
2022/08/04 11:36:46;;;;;;;;;1.33;1.33;;;;;;;;5070880;27;52424;-60
2022/08/04 11:39:21;;;;;;;;;1.00;1.00;;;;;;;;5071641;28;51040;-60
2022/08/04 11:41:46;;;;;;;;;2.00;2.00;;;;;;;;5071162;28;50962;-60
2022/08/04 11:44:17;;;;;;;;;3.33;3.33;;;;;;;;5071168;28;50985;-60
2022/08/04 11:46:46;;;;;;;;;4.33;4.33;;;;;;;;5070871;28;51162;-60
2022/08/04 11:49:22;;;;;;;;;4.67;4.67;;;;;;;;5070544;27;51099;-59
2022/08/04 11:51:49;;;;;;;;;4.00;4.00;;;;;;;;5072842;28;51024;-60
2022/08/04 11:54:14;;;;;;;;;3.00;3.00;;;;;;;;5074233;28;51232;-59
2022/08/04 11:56:40;;;;;;;;;5.33;5.00;;;;;;;;5073409;28;51879;-59
2022/08/04 11:59:09;;;;;;;;;5.33;4.67;;;;;;;;5074307;28;51065;-59
2022/08/04 12:01:45;;;;;;;;;13.00;13.00;;;;;;;;5074866;27;51142;-60
2022/08/04 12:04:15;;;;;;;;;6.33;6.00;;;;;;;;5074687;28;51183;-60
2022/08/04 12:06:51;;;;;;;;;5.00;5.00;;;;;;;;5072987;28;53317;-60
2022/08/04 12:09:21;;;;;;;;;5.00;4.67;;;;;;;;5074469;28;50989;-61
2022/08/04 12:11:49;;;;;;;;;4.33;4.33;;;;;;;;5074043;28;51041;-60
2022/08/04 12:14:24;;;;;;;;;5.33;4.00;;;;;;;;5074540;28;50901;-60
2022/08/04 12:17:00;;;;;;;;;6.67;5.00;;;;;;;;5074037;28;51689;-60
2022/08/04 12:19:29;;;;;;;;;6.67;5.00;;;;;;;;5074455;28;50934;-59
2022/08/04 12:21:56;;;;;;;;;5.00;4.00;;;;;;;;5074033;27;50913;-59
2022/08/04 12:24:37;;;;;;;;;3.00;2.67;;;;;;;;5074512;28;51144;-59
2022/08/04 12:27:09;;;;;;;;;3.33;3.33;;;;;;;;5073412;28;51160;-59
2022/08/04 12:29:36;;;;;;;;;4.00;3.00;;;;;;;;5073755;28;50942;-61
2022/08/04 12:32:10;;;;;;;;;4.00;4.00;;;;;;;;5074180;28;50982;-60
2022/08/04 12:34:54;;;;;;;;;4.33;4.00;;;;;;;;5074281;28;50952;-58
2022/08/04 12:37:19;;;;;;;;;5.00;5.00;;;;;;;;5073934;27;51090;-59
2022/08/04 12:39:47;;;;;;;;;3.33;3.33;;;;;;;;5074197;28;51027;-60
2022/08/04 12:42:14;;;;;;;;;5.00;4.00;;;;;;;;5074065;28;50942;-60
2022/08/04 12:44:41;;;;;;;;;4.67;4.67;;;;;;;;5073991;28;50980;-58
2022/08/04 12:47:08;;;;;;;;;3.67;3.67;;;;;;;;5073739;27;51782;-59
2022/08/04 12:49:36;;;;;;;;;5.00;4.00;;;;;;;;5073872;28;51087;-59
2022/08/04 12:52:04;;;;;;;;;4.33;4.33;;;;;;;;5073640;28;50965;-60
2022/08/04 12:54:32;;;;;;;;;6.00;5.33;;;;;;;;5074355;28;50934;-60
2022/08/04 12:56:58;;;;;;;;;5.00;5.00;;;;;;;;5072906;28;51037;-60
2022/08/04 12:59:23;;;;;;;;;4.00;4.00;;;;;;;;5073589;28;50981;-58
2022/08/04 13:01:50;;;;;;;;;5.33;4.00;;;;;;;;5073601;28;50913;-60
2022/08/04 13:04:25;;;;;;;;;4.00;4.00;;;;;;;;5073469;28;51302;-59
2022/08/04 13:06:53;;;;;;;;;4.67;4.00;;;;;;;;5073499;27;52652;-58
2022/08/04 13:09:22;;;;;;;;;3.00;3.00;;;;;;;;5074020;27;50955;-60
2022/08/04 13:11:56;;;;;;;;;6.00;5.67;;;;;;;;5073249;27;51070;-59
2022/08/04 13:14:22;;;;;;;;;4.67;4.67;;;;;;;;5073147;27;51011;-59
2022/08/04 13:16:55;;;;;;;;;4.00;4.00;;;;;;;;5073167;27;51580;-59
2022/08/04 13:19:20;;;;;;;;;3.33;3.33;;;;;;;;5073832;28;51049;-60
2022/08/04 13:21:46;;;;;;;;;5.00;3.00;;;;;;;;5073233;28;51049;-59
2022/08/04 13:24:13;;;;;;;;;4.00;4.00;;;;;;;;5073437;27;51165;-59
2022/08/04 13:26:49;;;;;;;;;2.33;2.33;;;;;;;;5072456;28;51059;-60
2022/08/04 13:29:16;;;;;;;;;4.00;4.00;;;;;;;;5073336;28;50919;-60
2022/08/04 13:31:43;;;;;;;;;2.00;2.00;;;;;;;;5073055;27;51039;-59
2022/08/04 13:34:08;;;;;;;;;2.67;2.67;;;;;;;;5073176;27;50923;-61
2022/08/04 13:36:35;;;;;;;;;4.67;4.00;;;;;;;;5072753;28;51041;-59
2022/08/04 13:39:07;;;;;;;;;5.33;5.33;;;;;;;;5073376;27;50964;-60
2022/08/04 13:41:32;;;;;;;;;5.00;5.00;;;;;;;;5072535;27;50875;-60
2022/08/04 13:44:00;;;;;;;;;4.00;4.00;;;;;;;;5068858;27;50991;-60
2022/08/04 13:46:28;;;;;;;;;3.33;3.33;;;;;;;;5072915;27;51947;-59
2022/08/04 13:48:54;;;;;;;;;3.00;3.00;;;;;;;;5072916;27;51074;-58
2022/08/04 13:51:21;;;;;;;;;4.00;3.00;;;;;;;;5072858;27;50903;-60
2022/08/04 13:53:54;;;;;;;;;4.00;4.00;;;;;;;;5073392;28;51131;-60
2022/08/04 13:56:21;;;;;;;;;4.00;3.33;;;;;;;;5072434;28;52203;-60
2022/08/04 13:58:46;;;;;;;;;5.00;4.00;;;;;;;;5072766;28;50954;-60
2022/08/04 14:01:11;;;;;;;;;8.00;7.67;;;;;;;;5071759;28;51693;-60
2022/08/04 14:03:38;;;;;;;;;2.00;2.00;;;;;;;;5073065;28;50962;-60
2022/08/04 14:06:08;;;;;;;;;4.00;4.00;;;;;;;;5072210;28;51815;-59
2022/08/04 14:08:35;;;;;;;;;4.00;4.00;;;;;;;;5072508;28;51163;-61
2022/08/04 14:11:00;;;;;;;;;4.00;4.00;;;;;;;;5072689;28;50862;-60
2022/08/04 14:13:30;;;;;;;;;6.00;6.00;;;;;;;;5072725;28;51121;-59
2022/08/04 14:15:55;;;;;;;;;3.33;3.33;;;;;;;;5072475;27;52005;-60
2022/08/04 14:18:22;;;;;;;;;4.33;4.00;;;;;;;;5072450;28;51047;-60
2022/08/04 14:21:07;;;;;;;;;4.00;4.00;;;;;;;;5072610;28;51231;-59
2022/08/04 14:23:52;;;;;;;;;4.00;4.00;;;;;;;;5072715;27;51335;-60
2022/08/04 14:26:19;;;;;;;;;4.00;3.67;;;;;;;;5071945;28;51075;-60
2022/08/04 14:28:44;;;;;;;;;5.33;5.00;;;;;;;;5072529;28;50960;-61
2022/08/04 14:31:11;;;;;;;;;4.00;3.33;;;;;;;;5072400;28;51480;-58
2022/08/04 14:33:38;;;;;;;;;5.00;4.00;;;;;;;;5072747;28;50990;-59
2022/08/04 14:36:03;;;;;;;;;4.00;4.00;;;;;;;;5072219;28;52327;-60
2022/08/04 14:38:41;;;;;;;;;3.00;3.00;;;;;;;;5072637;28;51128;-59
2022/08/04 14:41:06;;;;;;;;;3.00;3.00;;;;;;;;5071666;28;51168;-60
2022/08/04 14:43:31;;;;;;;;;6.67;6.67;;;;;;;;5072503;28;51117;-60
2022/08/04 14:46:03;;;;;;;;;6.67;6.00;;;;;;;;5071827;27;52111;-59
2022/08/04 14:48:28;;;;;;;;;3.00;3.00;;;;;;;;5070660;28;51047;-59
2022/08/04 14:50:54;;;;;;;;;4.67;4.00;;;;;;;;5071894;28;51364;-60
2022/08/04 14:53:20;;;;;;;;;2.00;2.00;;;;;;;;5072254;27;50875;-60
2022/08/04 14:55:47;;;;;;;;;4.33;4.00;;;;;;;;5071087;28;51007;-60
2022/08/04 14:58:17;;;;;;;;;3.00;3.00;;;;;;;;5071905;28;51032;-58
2022/08/04 15:00:43;;;;;;;;;3.00;3.00;;;;;;;;5071908;28;51056;-58
2022/08/04 15:03:09;;;;;;;;;3.67;3.33;;;;;;;;5072290;28;50866;-60
2022/08/04 15:05:38;;;;;;;;;3.00;3.00;;;;;;;;5071230;27;51042;-60
2022/08/04 15:08:03;;;;;;;;;7.00;7.00;;;;;;;;5071828;28;51033;-60
2022/08/04 15:10:29;;;;;;;;;3.33;3.33;;;;;;;;5071683;28;50972;-59
2022/08/04 15:12:54;;;;;;;;;4.33;4.00;;;;;;;;5072211;27;51014;-59
2022/08/04 15:15:20;;;;;;;;;4.00;4.00;;;;;;;;5071481;28;51995;-59